sensor_id;sensor_type;location;lat;lon;timestamp;P1;durP1;ratioP1;P2;durP2;ratioP2
54853;SDS011;40747;49.480;8.658;2022-08-19T00:02:09;14.18;;;8.43;;
54853;SDS011;40747;49.480;8.658;2022-08-19T00:04:35;14.00;;;8.57;;
54853;SDS011;40747;49.480;8.658;2022-08-19T00:07:01;15.85;;;9.55;;
54853;SDS011;40747;49.480;8.658;2022-08-19T00:09:28;12.43;;;8.40;;
54853;SDS011;40747;49.480;8.658;2022-08-19T00:11:54;14.32;;;9.23;;
54853;SDS011;40747;49.480;8.658;2022-08-19T00:14:20;14.48;;;8.60;;
54853;SDS011;40747;49.480;8.658;2022-08-19T00:16:47;12.20;;;8.35;;
54853;SDS011;40747;49.480;8.658;2022-08-19T00:19:13;17.70;;;10.05;;
54853;SDS011;40747;49.480;8.658;2022-08-19T00:21:40;15.02;;;8.85;;
54853;SDS011;40747;49.480;8.658;2022-08-19T00:24:07;16.08;;;9.60;;
54853;SDS011;40747;49.480;8.658;2022-08-19T00:26:33;13.73;;;9.32;;
54853;SDS011;40747;49.480;8.658;2022-08-19T00:28:59;14.40;;;8.57;;
54853;SDS011;40747;49.480;8.658;2022-08-19T00:31:26;15.45;;;8.52;;
54853;SDS011;40747;49.480;8.658;2022-08-19T00:33:52;16.02;;;9.73;;
54853;SDS011;40747;49.480;8.658;2022-08-19T00:36:18;14.80;;;9.35;;
54853;SDS011;40747;49.480;8.658;2022-08-19T00:38:43;16.00;;;9.38;;
54853;SDS011;40747;49.480;8.658;2022-08-19T00:41:13;13.30;;;9.65;;
54853;SDS011;40747;49.480;8.658;2022-08-19T00:43:41;16.25;;;8.68;;
54853;SDS011;40747;49.480;8.658;2022-08-19T00:46:06;14.07;;;9.45;;
54853;SDS011;40747;49.480;8.658;2022-08-19T00:48:33;18.30;;;10.02;;
54853;SDS011;40747;49.480;8.658;2022-08-19T00:50:59;16.98;;;10.00;;
54853;SDS011;40747;49.480;8.658;2022-08-19T00:53:26;17.15;;;9.27;;
54853;SDS011;40747;49.480;8.658;2022-08-19T00:55:54;15.68;;;10.05;;
54853;SDS011;40747;49.480;8.658;2022-08-19T00:58:24;16.95;;;9.00;;
54853;SDS011;40747;49.480;8.658;2022-08-19T01:00:53;19.75;;;9.77;;
54853;SDS011;40747;49.480;8.658;2022-08-19T01:03:19;13.73;;;7.82;;
54853;SDS011;40747;49.480;8.658;2022-08-19T01:05:46;15.43;;;9.57;;
54853;SDS011;40747;49.480;8.658;2022-08-19T01:08:14;16.23;;;9.18;;
54853;SDS011;40747;49.480;8.658;2022-08-19T01:10:42;17.27;;;9.88;;
54853;SDS011;40747;49.480;8.658;2022-08-19T01:13:11;16.67;;;9.27;;
54853;SDS011;40747;49.480;8.658;2022-08-19T01:15:42;14.98;;;9.23;;
54853;SDS011;40747;49.480;8.658;2022-08-19T01:18:12;13.73;;;9.55;;
54853;SDS011;40747;49.480;8.658;2022-08-19T01:20:40;15.68;;;9.02;;
54853;SDS011;40747;49.480;8.658;2022-08-19T01:23:08;15.93;;;9.27;;
54853;SDS011;40747;49.480;8.658;2022-08-19T01:28:25;14.63;;;8.60;;
54853;SDS011;40747;49.480;8.658;2022-08-19T01:30:52;14.02;;;9.00;;
54853;SDS011;40747;49.480;8.658;2022-08-19T01:33:18;15.82;;;9.45;;
54853;SDS011;40747;49.480;8.658;2022-08-19T01:35:45;13.10;;;8.45;;
54853;SDS011;40747;49.480;8.658;2022-08-19T01:38:19;15.50;;;8.82;;
54853;SDS011;40747;49.480;8.658;2022-08-19T01:40:48;15.77;;;9.07;;
54853;SDS011;40747;49.480;8.658;2022-08-19T01:43:14;14.60;;;9.18;;
54853;SDS011;40747;49.480;8.658;2022-08-19T01:45:40;17.55;;;9.77;;
54853;SDS011;40747;49.480;8.658;2022-08-19T01:48:06;15.20;;;9.40;;
54853;SDS011;40747;49.480;8.658;2022-08-19T01:50:32;14.95;;;10.15;;
54853;SDS011;40747;49.480;8.658;2022-08-19T01:52:59;17.73;;;10.80;;
54853;SDS011;40747;49.480;8.658;2022-08-19T01:55:26;15.88;;;9.82;;
54853;SDS011;40747;49.480;8.658;2022-08-19T01:58:00;14.93;;;9.35;;
54853;SDS011;40747;49.480;8.658;2022-08-19T02:00:28;17.23;;;9.88;;
54853;SDS011;40747;49.480;8.658;2022-08-19T02:02:56;18.05;;;10.00;;
54853;SDS011;40747;49.480;8.658;2022-08-19T02:05:21;17.25;;;10.15;;
54853;SDS011;40747;49.480;8.658;2022-08-19T02:07:48;17.23;;;10.60;;
54853;SDS011;40747;49.480;8.658;2022-08-19T02:10:16;17.85;;;9.32;;
54853;SDS011;40747;49.480;8.658;2022-08-19T02:12:43;22.08;;;9.68;;
54853;SDS011;40747;49.480;8.658;2022-08-19T02:15:09;15.27;;;9.85;;
54853;SDS011;40747;49.480;8.658;2022-08-19T02:17:35;15.82;;;9.27;;
54853;SDS011;40747;49.480;8.658;2022-08-19T02:20:00;15.90;;;8.93;;
54853;SDS011;40747;49.480;8.658;2022-08-19T02:22:26;15.43;;;8.77;;
54853;SDS011;40747;49.480;8.658;2022-08-19T02:24:53;16.80;;;9.38;;
54853;SDS011;40747;49.480;8.658;2022-08-19T02:27:20;14.43;;;8.93;;
54853;SDS011;40747;49.480;8.658;2022-08-19T02:29:46;14.40;;;7.80;;
54853;SDS011;40747;49.480;8.658;2022-08-19T02:32:14;16.98;;;9.82;;
54853;SDS011;40747;49.480;8.658;2022-08-19T02:34:39;15.63;;;8.63;;
54853;SDS011;40747;49.480;8.658;2022-08-19T02:37:05;15.88;;;8.50;;
54853;SDS011;40747;49.480;8.658;2022-08-19T02:39:30;18.05;;;9.35;;
54853;SDS011;40747;49.480;8.658;2022-08-19T02:41:56;14.63;;;9.20;;
54853;SDS011;40747;49.480;8.658;2022-08-19T02:44:21;17.60;;;10.00;;
54853;SDS011;40747;49.480;8.658;2022-08-19T02:46:48;16.88;;;9.45;;
54853;SDS011;40747;49.480;8.658;2022-08-19T02:49:15;15.95;;;10.23;;
54853;SDS011;40747;49.480;8.658;2022-08-19T02:51:42;17.27;;;8.82;;
54853;SDS011;40747;49.480;8.658;2022-08-19T02:54:09;15.95;;;9.05;;
54853;SDS011;40747;49.480;8.658;2022-08-19T02:56:37;17.90;;;10.10;;
54853;SDS011;40747;49.480;8.658;2022-08-19T02:59:03;17.58;;;10.40;;
54853;SDS011;40747;49.480;8.658;2022-08-19T03:01:34;15.55;;;9.02;;
54853;SDS011;40747;49.480;8.658;2022-08-19T03:04:01;15.98;;;8.93;;
54853;SDS011;40747;49.480;8.658;2022-08-19T03:06:28;15.52;;;9.27;;
54853;SDS011;40747;49.480;8.658;2022-08-19T03:08:55;16.17;;;9.63;;
54853;SDS011;40747;49.480;8.658;2022-08-19T03:11:25;17.63;;;9.43;;
54853;SDS011;40747;49.480;8.658;2022-08-19T03:16:20;18.40;;;8.90;;
54853;SDS011;40747;49.480;8.658;2022-08-19T03:18:48;14.35;;;9.02;;
54853;SDS011;40747;49.480;8.658;2022-08-19T03:21:17;16.63;;;9.50;;
54853;SDS011;40747;49.480;8.658;2022-08-19T03:23:45;15.93;;;9.35;;
54853;SDS011;40747;49.480;8.658;2022-08-19T03:26:10;18.35;;;9.25;;
54853;SDS011;40747;49.480;8.658;2022-08-19T03:28:36;14.18;;;8.55;;
54853;SDS011;40747;49.480;8.658;2022-08-19T03:31:10;16.10;;;9.68;;
54853;SDS011;40747;49.480;8.658;2022-08-19T03:33:37;20.63;;;9.65;;
54853;SDS011;40747;49.480;8.658;2022-08-19T03:38:38;14.88;;;8.80;;
54853;SDS011;40747;49.480;8.658;2022-08-19T03:41:07;15.48;;;8.55;;
54853;SDS011;40747;49.480;8.658;2022-08-19T03:43:38;14.45;;;8.80;;
54853;SDS011;40747;49.480;8.658;2022-08-19T03:46:08;14.27;;;8.60;;
54853;SDS011;40747;49.480;8.658;2022-08-19T03:48:38;15.27;;;9.52;;
54853;SDS011;40747;49.480;8.658;2022-08-19T03:51:05;15.88;;;8.77;;
54853;SDS011;40747;49.480;8.658;2022-08-19T03:53:32;16.38;;;9.45;;
54853;SDS011;40747;49.480;8.658;2022-08-19T03:56:00;16.85;;;9.63;;
54853;SDS011;40747;49.480;8.658;2022-08-19T03:58:26;16.52;;;9.23;;
54853;SDS011;40747;49.480;8.658;2022-08-19T04:00:53;18.50;;;10.30;;
54853;SDS011;40747;49.480;8.658;2022-08-19T04:03:20;16.48;;;9.38;;
54853;SDS011;40747;49.480;8.658;2022-08-19T04:05:45;17.35;;;9.88;;
54853;SDS011;40747;49.480;8.658;2022-08-19T04:08:11;16.27;;;9.15;;
54853;SDS011;40747;49.480;8.658;2022-08-19T04:10:38;18.17;;;11.00;;
54853;SDS011;40747;49.480;8.658;2022-08-19T04:13:05;17.80;;;9.30;;
54853;SDS011;40747;49.480;8.658;2022-08-19T04:15:32;18.55;;;10.50;;
54853;SDS011;40747;49.480;8.658;2022-08-19T04:18:03;20.98;;;10.88;;
54853;SDS011;40747;49.480;8.658;2022-08-19T04:20:31;17.92;;;10.85;;
54853;SDS011;40747;49.480;8.658;2022-08-19T04:22:56;18.42;;;10.30;;
54853;SDS011;40747;49.480;8.658;2022-08-19T04:25:22;18.80;;;11.20;;
54853;SDS011;40747;49.480;8.658;2022-08-19T04:27:47;19.35;;;11.30;;
54853;SDS011;40747;49.480;8.658;2022-08-19T04:30:13;19.17;;;10.50;;
54853;SDS011;40747;49.480;8.658;2022-08-19T04:32:39;22.55;;;10.68;;
54853;SDS011;40747;49.480;8.658;2022-08-19T04:35:04;16.52;;;9.73;;
54853;SDS011;40747;49.480;8.658;2022-08-19T04:37:30;20.88;;;10.50;;
54853;SDS011;40747;49.480;8.658;2022-08-19T04:39:58;20.50;;;10.73;;
54853;SDS011;40747;49.480;8.658;2022-08-19T04:42:42;18.27;;;9.63;;
54853;SDS011;40747;49.480;8.658;2022-08-19T04:45:08;15.57;;;9.10;;
54853;SDS011;40747;49.480;8.658;2022-08-19T04:47:40;20.05;;;11.10;;
54853;SDS011;40747;49.480;8.658;2022-08-19T04:50:09;20.90;;;12.00;;
54853;SDS011;40747;49.480;8.658;2022-08-19T04:52:37;19.65;;;10.90;;
54853;SDS011;40747;49.480;8.658;2022-08-19T04:55:07;19.40;;;10.80;;
54853;SDS011;40747;49.480;8.658;2022-08-19T04:57:33;22.35;;;12.13;;
54853;SDS011;40747;49.480;8.658;2022-08-19T04:59:58;19.08;;;10.95;;
54853;SDS011;40747;49.480;8.658;2022-08-19T05:02:23;17.98;;;10.45;;
54853;SDS011;40747;49.480;8.658;2022-08-19T05:04:50;22.35;;;11.23;;
54853;SDS011;40747;49.480;8.658;2022-08-19T05:07:20;16.42;;;10.27;;
54853;SDS011;40747;49.480;8.658;2022-08-19T05:09:46;21.10;;;11.35;;
54853;SDS011;40747;49.480;8.658;2022-08-19T05:12:11;20.08;;;11.70;;
54853;SDS011;40747;49.480;8.658;2022-08-19T05:14:36;22.63;;;12.40;;
54853;SDS011;40747;49.480;8.658;2022-08-19T05:17:02;17.95;;;10.75;;
54853;SDS011;40747;49.480;8.658;2022-08-19T05:19:27;19.90;;;10.57;;
54853;SDS011;40747;49.480;8.658;2022-08-19T05:22:11;18.35;;;10.02;;
54853;SDS011;40747;49.480;8.658;2022-08-19T05:24:55;20.05;;;10.57;;
54853;SDS011;40747;49.480;8.658;2022-08-19T05:27:20;18.27;;;10.18;;
54853;SDS011;40747;49.480;8.658;2022-08-19T05:29:45;19.95;;;10.98;;
54853;SDS011;40747;49.480;8.658;2022-08-19T05:32:10;19.45;;;11.02;;
54853;SDS011;40747;49.480;8.658;2022-08-19T05:34:36;18.40;;;10.63;;
54853;SDS011;40747;49.480;8.658;2022-08-19T05:37:03;19.65;;;10.13;;
54853;SDS011;40747;49.480;8.658;2022-08-19T05:39:30;24.13;;;12.02;;
54853;SDS011;40747;49.480;8.658;2022-08-19T05:41:58;21.35;;;10.68;;
54853;SDS011;40747;49.480;8.658;2022-08-19T05:44:26;20.17;;;10.98;;
54853;SDS011;40747;49.480;8.658;2022-08-19T05:46:56;19.50;;;11.60;;
54853;SDS011;40747;49.480;8.658;2022-08-19T05:49:22;23.40;;;11.65;;
54853;SDS011;40747;49.480;8.658;2022-08-19T05:51:49;20.50;;;11.55;;
54853;SDS011;40747;49.480;8.658;2022-08-19T05:54:15;21.48;;;11.75;;
54853;SDS011;40747;49.480;8.658;2022-08-19T05:56:40;15.48;;;10.07;;
54853;SDS011;40747;49.480;8.658;2022-08-19T05:59:07;20.13;;;11.10;;
54853;SDS011;40747;49.480;8.658;2022-08-19T06:01:33;22.85;;;11.80;;
54853;SDS011;40747;49.480;8.658;2022-08-19T06:03:59;21.85;;;11.57;;
54853;SDS011;40747;49.480;8.658;2022-08-19T06:06:24;24.63;;;13.20;;
54853;SDS011;40747;49.480;8.658;2022-08-19T06:08:50;22.38;;;12.07;;
54853;SDS011;40747;49.480;8.658;2022-08-19T06:11:31;22.70;;;11.52;;
54853;SDS011;40747;49.480;8.658;2022-08-19T06:14:00;23.08;;;12.20;;
54853;SDS011;40747;49.480;8.658;2022-08-19T06:16:29;24.92;;;12.95;;
54853;SDS011;40747;49.480;8.658;2022-08-19T06:18:56;24.55;;;12.07;;
54853;SDS011;40747;49.480;8.658;2022-08-19T06:21:26;23.50;;;12.40;;
54853;SDS011;40747;49.480;8.658;2022-08-19T06:23:53;22.55;;;11.40;;
54853;SDS011;40747;49.480;8.658;2022-08-19T06:26:20;22.88;;;11.85;;
54853;SDS011;40747;49.480;8.658;2022-08-19T06:28:46;20.48;;;11.77;;
54853;SDS011;40747;49.480;8.658;2022-08-19T06:31:13;21.63;;;12.25;;
54853;SDS011;40747;49.480;8.658;2022-08-19T06:33:39;24.98;;;12.25;;
54853;SDS011;40747;49.480;8.658;2022-08-19T06:36:06;22.55;;;11.95;;
54853;SDS011;40747;49.480;8.658;2022-08-19T06:38:31;20.00;;;11.95;;
54853;SDS011;40747;49.480;8.658;2022-08-19T06:41:04;20.08;;;11.13;;
54853;SDS011;40747;49.480;8.658;2022-08-19T06:43:30;19.53;;;11.40;;
54853;SDS011;40747;49.480;8.658;2022-08-19T06:45:55;18.88;;;11.38;;
54853;SDS011;40747;49.480;8.658;2022-08-19T06:48:21;22.00;;;11.68;;
54853;SDS011;40747;49.480;8.658;2022-08-19T06:50:46;18.50;;;10.27;;
54853;SDS011;40747;49.480;8.658;2022-08-19T06:53:13;22.73;;;12.10;;
54853;SDS011;40747;49.480;8.658;2022-08-19T06:55:38;19.98;;;11.05;;
54853;SDS011;40747;49.480;8.658;2022-08-19T06:58:04;18.83;;;10.30;;
54853;SDS011;40747;49.480;8.658;2022-08-19T07:00:29;19.88;;;11.25;;
54853;SDS011;40747;49.480;8.658;2022-08-19T07:02:55;18.60;;;10.60;;
54853;SDS011;40747;49.480;8.658;2022-08-19T07:05:20;20.05;;;10.75;;
54853;SDS011;40747;49.480;8.658;2022-08-19T07:07:46;19.30;;;11.73;;
54853;SDS011;40747;49.480;8.658;2022-08-19T07:10:11;22.20;;;12.40;;
54853;SDS011;40747;49.480;8.658;2022-08-19T07:12:36;19.40;;;10.65;;
54853;SDS011;40747;49.480;8.658;2022-08-19T07:15:03;18.40;;;10.52;;
54853;SDS011;40747;49.480;8.658;2022-08-19T07:17:30;17.50;;;10.10;;
54853;SDS011;40747;49.480;8.658;2022-08-19T07:19:56;16.90;;;10.27;;
54853;SDS011;40747;49.480;8.658;2022-08-19T07:22:21;15.38;;;9.38;;
54853;SDS011;40747;49.480;8.658;2022-08-19T07:24:49;15.25;;;10.48;;
54853;SDS011;40747;49.480;8.658;2022-08-19T07:27:18;17.20;;;10.23;;
54853;SDS011;40747;49.480;8.658;2022-08-19T07:29:44;16.13;;;9.90;;
54853;SDS011;40747;49.480;8.658;2022-08-19T07:32:09;20.05;;;10.75;;
54853;SDS011;40747;49.480;8.658;2022-08-19T07:34:36;14.25;;;8.73;;
54853;SDS011;40747;49.480;8.658;2022-08-19T07:37:02;15.32;;;9.00;;
54853;SDS011;40747;49.480;8.658;2022-08-19T07:39:32;14.45;;;8.40;;
54853;SDS011;40747;49.480;8.658;2022-08-19T07:42:00;12.07;;;7.47;;
54853;SDS011;40747;49.480;8.658;2022-08-19T07:44:28;17.00;;;9.02;;
54853;SDS011;40747;49.480;8.658;2022-08-19T07:46:55;14.23;;;8.85;;
54853;SDS011;40747;49.480;8.658;2022-08-19T07:49:22;16.38;;;8.80;;
54853;SDS011;40747;49.480;8.658;2022-08-19T07:51:50;17.85;;;9.40;;
54853;SDS011;40747;49.480;8.658;2022-08-19T07:54:21;14.93;;;9.73;;
54853;SDS011;40747;49.480;8.658;2022-08-19T07:56:49;16.20;;;9.52;;
54853;SDS011;40747;49.480;8.658;2022-08-19T07:59:15;14.23;;;9.25;;
54853;SDS011;40747;49.480;8.658;2022-08-19T08:01:42;13.27;;;7.90;;
54853;SDS011;40747;49.480;8.658;2022-08-19T08:04:09;13.45;;;7.82;;
54853;SDS011;40747;49.480;8.658;2022-08-19T08:06:53;12.85;;;8.23;;
54853;SDS011;40747;49.480;8.658;2022-08-19T08:09:38;14.23;;;9.25;;
54853;SDS011;40747;49.480;8.658;2022-08-19T08:12:06;12.13;;;8.27;;
54853;SDS011;40747;49.480;8.658;2022-08-19T08:14:37;12.15;;;8.02;;
54853;SDS011;40747;49.480;8.658;2022-08-19T08:17:09;15.65;;;9.35;;
54853;SDS011;40747;49.480;8.658;2022-08-19T08:19:35;12.93;;;8.43;;
54853;SDS011;40747;49.480;8.658;2022-08-19T08:22:01;14.10;;;8.75;;
54853;SDS011;40747;49.480;8.658;2022-08-19T08:24:28;17.75;;;9.00;;
54853;SDS011;40747;49.480;8.658;2022-08-19T08:26:59;13.40;;;7.95;;
54853;SDS011;40747;49.480;8.658;2022-08-19T08:29:29;14.18;;;7.38;;
54853;SDS011;40747;49.480;8.658;2022-08-19T08:31:56;16.88;;;8.55;;
54853;SDS011;40747;49.480;8.658;2022-08-19T08:34:22;11.63;;;7.07;;
54853;SDS011;40747;49.480;8.658;2022-08-19T08:36:47;14.18;;;7.47;;
54853;SDS011;40747;49.480;8.658;2022-08-19T08:39:14;11.15;;;7.03;;
54853;SDS011;40747;49.480;8.658;2022-08-19T08:44:17;14.43;;;7.68;;
54853;SDS011;40747;49.480;8.658;2022-08-19T08:46:49;15.10;;;7.70;;
54853;SDS011;40747;49.480;8.658;2022-08-19T08:49:28;11.05;;;7.13;;
54853;SDS011;40747;49.480;8.658;2022-08-19T08:52:13;11.90;;;8.07;;
54853;SDS011;40747;49.480;8.658;2022-08-19T08:54:47;10.52;;;6.65;;
54853;SDS011;40747;49.480;8.658;2022-08-19T08:57:17;10.23;;;6.65;;
54853;SDS011;40747;49.480;8.658;2022-08-19T08:59:48;10.15;;;6.15;;
54853;SDS011;40747;49.480;8.658;2022-08-19T09:02:18;6.32;;;4.57;;
54853;SDS011;40747;49.480;8.658;2022-08-19T09:04:44;6.93;;;4.88;;
54853;SDS011;40747;49.480;8.658;2022-08-19T09:07:13;10.60;;;5.10;;
54853;SDS011;40747;49.480;8.658;2022-08-19T09:09:42;6.13;;;4.63;;
54853;SDS011;40747;49.480;8.658;2022-08-19T09:14:48;6.90;;;4.43;;
54853;SDS011;40747;49.480;8.658;2022-08-19T09:17:20;6.50;;;4.10;;
54853;SDS011;40747;49.480;8.658;2022-08-19T09:20:00;6.43;;;4.15;;
54853;SDS011;40747;49.480;8.658;2022-08-19T09:22:33;6.30;;;3.90;;
54853;SDS011;40747;49.480;8.658;2022-08-19T09:25:00;4.72;;;3.60;;
54853;SDS011;40747;49.480;8.658;2022-08-19T09:27:26;4.95;;;3.47;;
54853;SDS011;40747;49.480;8.658;2022-08-19T09:29:53;6.90;;;3.60;;
54853;SDS011;40747;49.480;8.658;2022-08-19T09:32:19;10.38;;;4.60;;
54853;SDS011;40747;49.480;8.658;2022-08-19T09:34:45;8.38;;;4.57;;
54853;SDS011;40747;49.480;8.658;2022-08-19T09:37:12;9.25;;;4.05;;
54853;SDS011;40747;49.480;8.658;2022-08-19T09:39:39;6.55;;;4.20;;
54853;SDS011;40747;49.480;8.658;2022-08-19T09:42:05;7.82;;;4.20;;
54853;SDS011;40747;49.480;8.658;2022-08-19T09:44:36;8.00;;;4.40;;
54853;SDS011;40747;49.480;8.658;2022-08-19T09:47:02;5.35;;;4.07;;
54853;SDS011;40747;49.480;8.658;2022-08-19T09:49:28;4.25;;;3.83;;
54853;SDS011;40747;49.480;8.658;2022-08-19T09:51:54;5.57;;;3.80;;
54853;SDS011;40747;49.480;8.658;2022-08-19T09:54:21;7.78;;;4.70;;
54853;SDS011;40747;49.480;8.658;2022-08-19T09:56:46;6.72;;;4.38;;
54853;SDS011;40747;49.480;8.658;2022-08-19T09:59:12;5.18;;;3.85;;
54853;SDS011;40747;49.480;8.658;2022-08-19T10:01:37;6.38;;;4.25;;
54853;SDS011;40747;49.480;8.658;2022-08-19T10:04:03;7.15;;;4.22;;
54853;SDS011;40747;49.480;8.658;2022-08-19T10:06:33;7.65;;;4.28;;
54853;SDS011;40747;49.480;8.658;2022-08-19T10:08:59;4.97;;;3.75;;
54853;SDS011;40747;49.480;8.658;2022-08-19T10:11:25;6.15;;;3.80;;
54853;SDS011;40747;49.480;8.658;2022-08-19T10:13:51;4.50;;;3.47;;
54853;SDS011;40747;49.480;8.658;2022-08-19T10:16:20;5.85;;;3.72;;
54853;SDS011;40747;49.480;8.658;2022-08-19T10:18:47;3.95;;;3.08;;
54853;SDS011;40747;49.480;8.658;2022-08-19T10:23:41;5.38;;;2.97;;
54853;SDS011;40747;49.480;8.658;2022-08-19T10:26:14;5.47;;;3.35;;
54853;SDS011;40747;49.480;8.658;2022-08-19T10:28:44;7.32;;;3.85;;
54853;SDS011;40747;49.480;8.658;2022-08-19T10:31:11;4.57;;;3.10;;
54853;SDS011;40747;49.480;8.658;2022-08-19T10:33:38;6.88;;;3.35;;
54853;SDS011;40747;49.480;8.658;2022-08-19T10:36:09;9.23;;;3.90;;
54853;SDS011;40747;49.480;8.658;2022-08-19T10:38:37;3.75;;;3.20;;
54853;SDS011;40747;49.480;8.658;2022-08-19T10:41:12;6.10;;;3.78;;
54853;SDS011;40747;49.480;8.658;2022-08-19T10:43:40;3.67;;;2.88;;
54853;SDS011;40747;49.480;8.658;2022-08-19T10:46:07;4.25;;;3.22;;
54853;SDS011;40747;49.480;8.658;2022-08-19T10:48:34;3.70;;;3.40;;
54853;SDS011;40747;49.480;8.658;2022-08-19T10:50:59;4.75;;;3.45;;
54853;SDS011;40747;49.480;8.658;2022-08-19T10:53:44;4.60;;;3.60;;
54853;SDS011;40747;49.480;8.658;2022-08-19T10:56:09;4.50;;;3.47;;
54853;SDS011;40747;49.480;8.658;2022-08-19T10:58:53;3.95;;;3.55;;
54853;SDS011;40747;49.480;8.658;2022-08-19T11:01:19;8.68;;;4.50;;
54853;SDS011;40747;49.480;8.658;2022-08-19T11:03:45;5.50;;;4.35;;
54853;SDS011;40747;49.480;8.658;2022-08-19T11:06:10;5.97;;;4.50;;
54853;SDS011;40747;49.480;8.658;2022-08-19T11:08:36;6.57;;;4.47;;
54853;SDS011;40747;49.480;8.658;2022-08-19T11:11:06;5.78;;;4.50;;
54853;SDS011;40747;49.480;8.658;2022-08-19T11:13:33;5.47;;;3.78;;
54853;SDS011;40747;49.480;8.658;2022-08-19T11:16:02;6.20;;;4.32;;
54853;SDS011;40747;49.480;8.658;2022-08-19T11:18:31;8.70;;;5.43;;
54853;SDS011;40747;49.480;8.658;2022-08-19T11:21:05;5.90;;;4.95;;
54853;SDS011;40747;49.480;8.658;2022-08-19T11:23:33;7.55;;;4.85;;
54853;SDS011;40747;49.480;8.658;2022-08-19T11:25:58;6.55;;;5.13;;
54853;SDS011;40747;49.480;8.658;2022-08-19T11:28:25;5.90;;;5.18;;
54853;SDS011;40747;49.480;8.658;2022-08-19T11:30:51;6.88;;;5.95;;
54853;SDS011;40747;49.480;8.658;2022-08-19T11:33:16;5.80;;;5.20;;
54853;SDS011;40747;49.480;8.658;2022-08-19T11:35:42;5.47;;;4.50;;
54853;SDS011;40747;49.480;8.658;2022-08-19T11:38:07;6.68;;;4.78;;
54853;SDS011;40747;49.480;8.658;2022-08-19T11:40:32;7.65;;;4.93;;
54853;SDS011;40747;49.480;8.658;2022-08-19T11:42:58;6.65;;;5.63;;
54853;SDS011;40747;49.480;8.658;2022-08-19T11:45:24;7.55;;;6.18;;
54853;SDS011;40747;49.480;8.658;2022-08-19T11:47:51;6.60;;;5.40;;
54853;SDS011;40747;49.480;8.658;2022-08-19T11:50:17;7.40;;;5.40;;
54853;SDS011;40747;49.480;8.658;2022-08-19T11:52:43;13.02;;;5.22;;
54853;SDS011;40747;49.480;8.658;2022-08-19T11:55:10;5.35;;;4.55;;
54853;SDS011;40747;49.480;8.658;2022-08-19T11:57:36;5.00;;;4.18;;
54853;SDS011;40747;49.480;8.658;2022-08-19T12:00:02;4.80;;;4.40;;
54853;SDS011;40747;49.480;8.658;2022-08-19T12:02:30;5.32;;;4.82;;
54853;SDS011;40747;49.480;8.658;2022-08-19T12:04:55;5.45;;;4.90;;
54853;SDS011;40747;49.480;8.658;2022-08-19T12:07:21;5.15;;;4.63;;
54853;SDS011;40747;49.480;8.658;2022-08-19T12:09:46;5.10;;;4.60;;
54853;SDS011;40747;49.480;8.658;2022-08-19T12:12:12;5.22;;;4.30;;
54853;SDS011;40747;49.480;8.658;2022-08-19T12:14:38;6.55;;;4.65;;
54853;SDS011;40747;49.480;8.658;2022-08-19T12:17:03;6.20;;;5.10;;
54853;SDS011;40747;49.480;8.658;2022-08-19T12:19:31;6.40;;;5.00;;
54853;SDS011;40747;49.480;8.658;2022-08-19T12:21:59;7.75;;;6.50;;
54853;SDS011;40747;49.480;8.658;2022-08-19T12:24:29;7.53;;;5.53;;
54853;SDS011;40747;49.480;8.658;2022-08-19T12:26:56;7.35;;;5.30;;
54853;SDS011;40747;49.480;8.658;2022-08-19T12:29:23;8.27;;;5.57;;
54853;SDS011;40747;49.480;8.658;2022-08-19T12:31:53;7.57;;;5.28;;
54853;SDS011;40747;49.480;8.658;2022-08-19T12:34:19;5.85;;;5.35;;
54853;SDS011;40747;49.480;8.658;2022-08-19T12:36:45;10.88;;;5.13;;
54853;SDS011;40747;49.480;8.658;2022-08-19T12:39:10;13.80;;;5.90;;
54853;SDS011;40747;49.480;8.658;2022-08-19T12:41:36;5.72;;;5.15;;
54853;SDS011;40747;49.480;8.658;2022-08-19T12:44:02;5.65;;;4.65;;
54853;SDS011;40747;49.480;8.658;2022-08-19T12:46:28;5.80;;;4.88;;
54853;SDS011;40747;49.480;8.658;2022-08-19T12:48:53;5.63;;;4.75;;
54853;SDS011;40747;49.480;8.658;2022-08-19T12:51:19;5.80;;;5.20;;
54853;SDS011;40747;49.480;8.658;2022-08-19T12:53:45;8.00;;;5.00;;
54853;SDS011;40747;49.480;8.658;2022-08-19T12:56:11;4.55;;;4.05;;
54853;SDS011;40747;49.480;8.658;2022-08-19T12:58:39;6.65;;;5.18;;
54853;SDS011;40747;49.480;8.658;2022-08-19T13:01:07;6.63;;;5.43;;
54853;SDS011;40747;49.480;8.658;2022-08-19T13:03:35;5.30;;;4.47;;
54853;SDS011;40747;49.480;8.658;2022-08-19T13:06:01;7.07;;;5.25;;
54853;SDS011;40747;49.480;8.658;2022-08-19T13:08:27;14.80;;;13.10;;
54853;SDS011;40747;49.480;8.658;2022-08-19T13:10:52;6.25;;;5.00;;
54853;SDS011;40747;49.480;8.658;2022-08-19T13:13:18;19.30;;;16.50;;
54853;SDS011;40747;49.480;8.658;2022-08-19T13:15:43;7.82;;;4.47;;
54853;SDS011;40747;49.480;8.658;2022-08-19T13:18:11;5.85;;;5.05;;
54853;SDS011;40747;49.480;8.658;2022-08-19T13:20:38;6.47;;;5.20;;
54853;SDS011;40747;49.480;8.658;2022-08-19T13:23:05;7.55;;;4.93;;
54853;SDS011;40747;49.480;8.658;2022-08-19T13:25:31;4.85;;;4.32;;
54853;SDS011;40747;49.480;8.658;2022-08-19T13:27:56;5.78;;;4.78;;
54853;SDS011;40747;49.480;8.658;2022-08-19T13:30:22;5.53;;;5.00;;
54853;SDS011;40747;49.480;8.658;2022-08-19T13:33:08;6.28;;;4.35;;
54853;SDS011;40747;49.480;8.658;2022-08-19T13:35:41;4.85;;;4.20;;
54853;SDS011;40747;49.480;8.658;2022-08-19T13:38:16;3.97;;;3.53;;
54853;SDS011;40747;49.480;8.658;2022-08-19T13:40:42;4.43;;;3.55;;
54853;SDS011;40747;49.480;8.658;2022-08-19T13:43:08;5.22;;;4.03;;
54853;SDS011;40747;49.480;8.658;2022-08-19T13:45:34;4.35;;;3.92;;
54853;SDS011;40747;49.480;8.658;2022-08-19T13:48:00;4.22;;;3.83;;
54853;SDS011;40747;49.480;8.658;2022-08-19T13:50:31;4.40;;;3.58;;
54853;SDS011;40747;49.480;8.658;2022-08-19T13:52:58;4.03;;;3.53;;
54853;SDS011;40747;49.480;8.658;2022-08-19T13:55:25;3.97;;;3.35;;
54853;SDS011;40747;49.480;8.658;2022-08-19T13:57:52;6.78;;;3.83;;
54853;SDS011;40747;49.480;8.658;2022-08-19T14:00:18;3.85;;;3.47;;
54853;SDS011;40747;49.480;8.658;2022-08-19T14:02:44;4.15;;;3.65;;
54853;SDS011;40747;49.480;8.658;2022-08-19T14:05:11;4.10;;;3.33;;
54853;SDS011;40747;49.480;8.658;2022-08-19T14:07:39;5.18;;;3.58;;
54853;SDS011;40747;49.480;8.658;2022-08-19T14:10:05;4.50;;;3.35;;
54853;SDS011;40747;49.480;8.658;2022-08-19T14:12:34;4.10;;;3.70;;
54853;SDS011;40747;49.480;8.658;2022-08-19T14:15:00;5.97;;;3.80;;
54853;SDS011;40747;49.480;8.658;2022-08-19T14:17:27;4.18;;;3.42;;
54853;SDS011;40747;49.480;8.658;2022-08-19T14:19:59;4.10;;;3.65;;
54853;SDS011;40747;49.480;8.658;2022-08-19T14:22:33;7.28;;;4.07;;
54853;SDS011;40747;49.480;8.658;2022-08-19T14:24:59;6.60;;;3.88;;
54853;SDS011;40747;49.480;8.658;2022-08-19T14:27:25;5.25;;;4.03;;
54853;SDS011;40747;49.480;8.658;2022-08-19T14:29:51;4.80;;;4.18;;
54853;SDS011;40747;49.480;8.658;2022-08-19T14:32:17;5.15;;;4.20;;
54853;SDS011;40747;49.480;8.658;2022-08-19T14:34:42;4.45;;;3.67;;
54853;SDS011;40747;49.480;8.658;2022-08-19T14:37:10;5.15;;;3.53;;
54853;SDS011;40747;49.480;8.658;2022-08-19T14:39:36;3.97;;;3.45;;
54853;SDS011;40747;49.480;8.658;2022-08-19T14:42:05;4.25;;;3.80;;
54853;SDS011;40747;49.480;8.658;2022-08-19T14:44:33;5.50;;;3.93;;
54853;SDS011;40747;49.480;8.658;2022-08-19T14:46:59;4.13;;;3.45;;
54853;SDS011;40747;49.480;8.658;2022-08-19T14:49:24;4.30;;;3.50;;
54853;SDS011;40747;49.480;8.658;2022-08-19T14:51:49;4.30;;;3.90;;
54853;SDS011;40747;49.480;8.658;2022-08-19T14:54:14;4.53;;;3.85;;